sensor_id;sensor_type;location;lat;lon;timestamp;P1;durP1;ratioP1;P2;durP2;ratioP2
10557;SDS011;5327;47.238;-2.304;2023-02-28T00:01:29;11.20;;;8.67;;
10557;SDS011;5327;47.238;-2.304;2023-02-28T00:03:55;25.77;;;12.55;;
10557;SDS011;5327;47.238;-2.304;2023-02-28T00:06:21;11.33;;;8.27;;
10557;SDS011;5327;47.238;-2.304;2023-02-28T00:08:47;12.33;;;8.00;;
10557;SDS011;5327;47.238;-2.304;2023-02-28T00:11:14;10.20;;;7.30;;
10557;SDS011;5327;47.238;-2.304;2023-02-28T00:13:41;11.37;;;7.00;;
10557;SDS011;5327;47.238;-2.304;2023-02-28T00:16:08;10.23;;;6.87;;
10557;SDS011;5327;47.238;-2.304;2023-02-28T00:18:35;18.43;;;6.83;;
10557;SDS011;5327;47.238;-2.304;2023-02-28T00:21:01;11.77;;;7.60;;
10557;SDS011;5327;47.238;-2.304;2023-02-28T00:23:27;12.20;;;6.60;;
10557;SDS011;5327;47.238;-2.304;2023-02-28T00:25:53;9.03;;;7.27;;
10557;SDS011;5327;47.238;-2.304;2023-02-28T00:28:20;12.10;;;8.30;;
10557;SDS011;5327;47.238;-2.304;2023-02-28T00:30:46;13.87;;;8.73;;
10557;SDS011;5327;47.238;-2.304;2023-02-28T00:33:12;7.60;;;5.40;;
10557;SDS011;5327;47.238;-2.304;2023-02-28T00:35:38;11.70;;;7.53;;
10557;SDS011;5327;47.238;-2.304;2023-02-28T00:38:04;9.30;;;6.83;;
10557;SDS011;5327;47.238;-2.304;2023-02-28T00:40:30;9.60;;;5.70;;
10557;SDS011;5327;47.238;-2.304;2023-02-28T00:42:56;10.47;;;7.00;;
10557;SDS011;5327;47.238;-2.304;2023-02-28T00:45:22;10.00;;;7.37;;
10557;SDS011;5327;47.238;-2.304;2023-02-28T00:47:49;10.17;;;7.20;;
10557;SDS011;5327;47.238;-2.304;2023-02-28T00:50:18;11.80;;;7.80;;
10557;SDS011;5327;47.238;-2.304;2023-02-28T00:52:45;12.90;;;8.23;;
10557;SDS011;5327;47.238;-2.304;2023-02-28T00:55:11;14.80;;;7.67;;
10557;SDS011;5327;47.238;-2.304;2023-02-28T00:57:37;19.97;;;8.00;;
10557;SDS011;5327;47.238;-2.304;2023-02-28T01:00:04;14.20;;;7.73;;
10557;SDS011;5327;47.238;-2.304;2023-02-28T01:02:30;10.80;;;7.17;;
10557;SDS011;5327;47.238;-2.304;2023-02-28T01:04:56;9.90;;;7.53;;
10557;SDS011;5327;47.238;-2.304;2023-02-28T01:07:22;10.23;;;6.33;;
10557;SDS011;5327;47.238;-2.304;2023-02-28T01:09:49;17.20;;;6.67;;
10557;SDS011;5327;47.238;-2.304;2023-02-28T01:12:15;8.97;;;6.93;;
10557;SDS011;5327;47.238;-2.304;2023-02-28T01:14:41;11.47;;;6.90;;
10557;SDS011;5327;47.238;-2.304;2023-02-28T01:17:08;7.53;;;5.80;;
10557;SDS011;5327;47.238;-2.304;2023-02-28T01:19:34;9.03;;;6.13;;
10557;SDS011;5327;47.238;-2.304;2023-02-28T01:22:03;8.23;;;5.43;;
10557;SDS011;5327;47.238;-2.304;2023-02-28T01:24:29;13.27;;;6.87;;
10557;SDS011;5327;47.238;-2.304;2023-02-28T01:26:56;9.50;;;6.60;;
10557;SDS011;5327;47.238;-2.304;2023-02-28T01:29:22;9.80;;;5.90;;
10557;SDS011;5327;47.238;-2.304;2023-02-28T01:31:48;6.90;;;5.03;;
10557;SDS011;5327;47.238;-2.304;2023-02-28T01:34:14;9.30;;;6.07;;
10557;SDS011;5327;47.238;-2.304;2023-02-28T01:36:40;13.63;;;7.43;;
10557;SDS011;5327;47.238;-2.304;2023-02-28T01:39:06;11.47;;;6.87;;
10557;SDS011;5327;47.238;-2.304;2023-02-28T01:41:33;7.60;;;6.40;;
10557;SDS011;5327;47.238;-2.304;2023-02-28T01:44:06;9.00;;;6.40;;
10557;SDS011;5327;47.238;-2.304;2023-02-28T01:46:33;12.20;;;5.60;;
10557;SDS011;5327;47.238;-2.304;2023-02-28T01:49:11;10.87;;;7.63;;
10557;SDS011;5327;47.238;-2.304;2023-02-28T01:51:47;13.37;;;7.17;;
10557;SDS011;5327;47.238;-2.304;2023-02-28T01:54:26;12.40;;;7.00;;
10557;SDS011;5327;47.238;-2.304;2023-02-28T01:56:54;9.67;;;7.57;;
10557;SDS011;5327;47.238;-2.304;2023-02-28T01:59:22;9.30;;;7.17;;
10557;SDS011;5327;47.238;-2.304;2023-02-28T02:01:49;9.07;;;6.60;;
10557;SDS011;5327;47.238;-2.304;2023-02-28T02:04:15;8.03;;;6.37;;
10557;SDS011;5327;47.238;-2.304;2023-02-28T02:06:43;9.17;;;5.50;;
10557;SDS011;5327;47.238;-2.304;2023-02-28T02:09:10;10.33;;;6.10;;
10557;SDS011;5327;47.238;-2.304;2023-02-28T02:11:36;12.30;;;7.57;;
10557;SDS011;5327;47.238;-2.304;2023-02-28T02:16:41;8.30;;;5.40;;
10557;SDS011;5327;47.238;-2.304;2023-02-28T02:37:39;12.23;;;7.10;;
10557;SDS011;5327;47.238;-2.304;2023-02-28T02:40:13;10.77;;;6.90;;
10557;SDS011;5327;47.238;-2.304;2023-02-28T02:42:42;8.07;;;5.73;;
10557;SDS011;5327;47.238;-2.304;2023-02-28T02:45:18;9.20;;;6.67;;
10557;SDS011;5327;47.238;-2.304;2023-02-28T02:47:47;14.47;;;8.20;;
10557;SDS011;5327;47.238;-2.304;2023-02-28T02:50:15;9.40;;;6.47;;
10557;SDS011;5327;47.238;-2.304;2023-02-28T02:52:46;9.50;;;6.00;;
10557;SDS011;5327;47.238;-2.304;2023-02-28T02:55:14;10.10;;;5.57;;
10557;SDS011;5327;47.238;-2.304;2023-02-28T03:00:09;12.30;;;5.80;;
10557;SDS011;5327;47.238;-2.304;2023-02-28T03:02:36;9.50;;;6.10;;
10557;SDS011;5327;47.238;-2.304;2023-02-28T03:05:47;10.47;;;7.00;;
10557;SDS011;5327;47.238;-2.304;2023-02-28T03:07:53;9.50;;;6.47;;
10557;SDS011;5327;47.238;-2.304;2023-02-28T03:10:29;9.27;;;6.03;;
10557;SDS011;5327;47.238;-2.304;2023-02-28T03:13:01;8.90;;;5.93;;
10557;SDS011;5327;47.238;-2.304;2023-02-28T03:15:33;11.17;;;6.93;;
10557;SDS011;5327;47.238;-2.304;2023-02-28T03:18:51;7.93;;;6.17;;
10557;SDS011;5327;47.238;-2.304;2023-02-28T03:20:56;11.27;;;5.97;;
10557;SDS011;5327;47.238;-2.304;2023-02-28T03:26:19;15.13;;;5.70;;
10557;SDS011;5327;47.238;-2.304;2023-02-28T03:28:51;9.10;;;5.80;;
10557;SDS011;5327;47.238;-2.304;2023-02-28T03:31:19;10.93;;;6.67;;
10557;SDS011;5327;47.238;-2.304;2023-02-28T03:33:48;14.03;;;7.90;;
10557;SDS011;5327;47.238;-2.304;2023-02-28T03:36:20;7.20;;;5.20;;
10557;SDS011;5327;47.238;-2.304;2023-02-28T03:41:30;9.43;;;7.27;;
10557;SDS011;5327;47.238;-2.304;2023-02-28T03:43:58;8.40;;;6.30;;
10557;SDS011;5327;47.238;-2.304;2023-02-28T03:46:27;8.90;;;5.77;;
10557;SDS011;5327;47.238;-2.304;2023-02-28T03:48:59;11.10;;;7.17;;
10557;SDS011;5327;47.238;-2.304;2023-02-28T03:51:28;7.57;;;6.10;;
10557;SDS011;5327;47.238;-2.304;2023-02-28T03:53:59;10.40;;;5.20;;
10557;SDS011;5327;47.238;-2.304;2023-02-28T03:56:31;14.87;;;7.50;;
10557;SDS011;5327;47.238;-2.304;2023-02-28T03:59:01;8.50;;;5.97;;
10557;SDS011;5327;47.238;-2.304;2023-02-28T04:01:38;9.73;;;6.47;;
10557;SDS011;5327;47.238;-2.304;2023-02-28T04:04:06;6.47;;;5.17;;
10557;SDS011;5327;47.238;-2.304;2023-02-28T04:06:33;9.83;;;6.53;;
10557;SDS011;5327;47.238;-2.304;2023-02-28T04:08:59;12.03;;;7.80;;
10557;SDS011;5327;47.238;-2.304;2023-02-28T04:13:54;9.07;;;7.00;;
10557;SDS011;5327;47.238;-2.304;2023-02-28T04:16:20;11.93;;;7.77;;
10557;SDS011;5327;47.238;-2.304;2023-02-28T04:18:46;7.17;;;5.30;;
10557;SDS011;5327;47.238;-2.304;2023-02-28T04:21:13;10.77;;;7.50;;
10557;SDS011;5327;47.238;-2.304;2023-02-28T04:23:39;10.70;;;7.63;;
10557;SDS011;5327;47.238;-2.304;2023-02-28T04:26:05;8.50;;;7.30;;
10557;SDS011;5327;47.238;-2.304;2023-02-28T04:28:32;13.00;;;7.57;;
10557;SDS011;5327;47.238;-2.304;2023-02-28T04:31:02;11.50;;;6.90;;
10557;SDS011;5327;47.238;-2.304;2023-02-28T04:33:28;11.10;;;7.03;;
10557;SDS011;5327;47.238;-2.304;2023-02-28T04:35:58;8.73;;;5.97;;
10557;SDS011;5327;47.238;-2.304;2023-02-28T04:38:24;7.40;;;5.57;;
10557;SDS011;5327;47.238;-2.304;2023-02-28T04:40:50;12.40;;;7.50;;
10557;SDS011;5327;47.238;-2.304;2023-02-28T04:43:16;7.73;;;5.77;;
10557;SDS011;5327;47.238;-2.304;2023-02-28T04:45:42;9.07;;;5.40;;
10557;SDS011;5327;47.238;-2.304;2023-02-28T04:48:08;8.50;;;5.83;;
10557;SDS011;5327;47.238;-2.304;2023-02-28T04:50:34;9.07;;;6.67;;
10557;SDS011;5327;47.238;-2.304;2023-02-28T04:53:00;18.20;;;7.90;;
10557;SDS011;5327;47.238;-2.304;2023-02-28T04:55:27;10.73;;;5.43;;
10557;SDS011;5327;47.238;-2.304;2023-02-28T04:57:53;7.20;;;5.37;;
10557;SDS011;5327;47.238;-2.304;2023-02-28T05:00:19;11.30;;;7.60;;
10557;SDS011;5327;47.238;-2.304;2023-02-28T05:02:45;9.83;;;7.07;;
10557;SDS011;5327;47.238;-2.304;2023-02-28T05:05:11;5.53;;;4.83;;
10557;SDS011;5327;47.238;-2.304;2023-02-28T05:07:43;9.88;;;6.88;;
10557;SDS011;5327;47.238;-2.304;2023-02-28T05:10:09;9.67;;;6.63;;
10557;SDS011;5327;47.238;-2.304;2023-02-28T05:12:35;10.20;;;6.80;;
10557;SDS011;5327;47.238;-2.304;2023-02-28T05:15:02;8.60;;;7.27;;
10557;SDS011;5327;47.238;-2.304;2023-02-28T05:17:29;8.57;;;7.20;;
10557;SDS011;5327;47.238;-2.304;2023-02-28T05:19:55;10.80;;;7.00;;
10557;SDS011;5327;47.238;-2.304;2023-02-28T05:22:22;10.10;;;7.37;;
10557;SDS011;5327;47.238;-2.304;2023-02-28T05:24:48;13.03;;;6.60;;
10557;SDS011;5327;47.238;-2.304;2023-02-28T05:27:14;8.73;;;6.67;;
10557;SDS011;5327;47.238;-2.304;2023-02-28T05:29:40;10.23;;;7.50;;
10557;SDS011;5327;47.238;-2.304;2023-02-28T05:32:10;10.27;;;7.23;;
10557;SDS011;5327;47.238;-2.304;2023-02-28T05:34:37;12.50;;;6.70;;
10557;SDS011;5327;47.238;-2.304;2023-02-28T05:37:03;12.43;;;6.93;;
10557;SDS011;5327;47.238;-2.304;2023-02-28T05:39:30;13.03;;;8.30;;
10557;SDS011;5327;47.238;-2.304;2023-02-28T05:41:56;10.00;;;7.50;;
10557;SDS011;5327;47.238;-2.304;2023-02-28T05:44:22;9.27;;;7.33;;
10557;SDS011;5327;47.238;-2.304;2023-02-28T05:46:48;8.83;;;7.30;;
10557;SDS011;5327;47.238;-2.304;2023-02-28T05:49:14;15.30;;;9.20;;
10557;SDS011;5327;47.238;-2.304;2023-02-28T05:51:40;10.57;;;8.70;;
10557;SDS011;5327;47.238;-2.304;2023-02-28T05:54:06;8.70;;;7.20;;
10557;SDS011;5327;47.238;-2.304;2023-02-28T05:56:32;15.23;;;7.40;;
10557;SDS011;5327;47.238;-2.304;2023-02-28T05:59:03;10.97;;;7.73;;
10557;SDS011;5327;47.238;-2.304;2023-02-28T06:01:34;10.97;;;8.70;;
10557;SDS011;5327;47.238;-2.304;2023-02-28T06:04:01;10.83;;;6.73;;
10557;SDS011;5327;47.238;-2.304;2023-02-28T06:06:27;9.63;;;6.47;;
10557;SDS011;5327;47.238;-2.304;2023-02-28T06:08:54;7.37;;;5.27;;
10557;SDS011;5327;47.238;-2.304;2023-02-28T06:11:20;14.07;;;8.20;;
10557;SDS011;5327;47.238;-2.304;2023-02-28T06:13:46;11.57;;;8.77;;
10557;SDS011;5327;47.238;-2.304;2023-02-28T06:16:13;14.00;;;7.60;;
10557;SDS011;5327;47.238;-2.304;2023-02-28T06:18:39;9.20;;;7.27;;
10557;SDS011;5327;47.238;-2.304;2023-02-28T06:21:05;12.33;;;9.30;;
10557;SDS011;5327;47.238;-2.304;2023-02-28T06:23:31;9.23;;;8.27;;
10557;SDS011;5327;47.238;-2.304;2023-02-28T06:25:57;13.60;;;10.07;;
10557;SDS011;5327;47.238;-2.304;2023-02-28T06:28:24;14.67;;;9.23;;
10557;SDS011;5327;47.238;-2.304;2023-02-28T06:30:51;15.20;;;9.83;;
10557;SDS011;5327;47.238;-2.304;2023-02-28T06:33:17;14.70;;;8.63;;
10557;SDS011;5327;47.238;-2.304;2023-02-28T06:35:44;14.07;;;9.50;;
10557;SDS011;5327;47.238;-2.304;2023-02-28T06:38:10;13.47;;;8.23;;
10557;SDS011;5327;47.238;-2.304;2023-02-28T06:40:36;11.63;;;9.13;;
10557;SDS011;5327;47.238;-2.304;2023-02-28T06:43:02;12.87;;;9.37;;
10557;SDS011;5327;47.238;-2.304;2023-02-28T06:45:29;14.23;;;10.20;;
10557;SDS011;5327;47.238;-2.304;2023-02-28T06:47:55;10.70;;;6.80;;
10557;SDS011;5327;47.238;-2.304;2023-02-28T06:50:21;11.77;;;8.60;;
10557;SDS011;5327;47.238;-2.304;2023-02-28T06:52:47;12.90;;;7.97;;
10557;SDS011;5327;47.238;-2.304;2023-02-28T06:55:13;14.70;;;10.37;;
10557;SDS011;5327;47.238;-2.304;2023-02-28T06:57:39;9.13;;;6.30;;
10557;SDS011;5327;47.238;-2.304;2023-02-28T07:00:07;12.57;;;8.70;;
10557;SDS011;5327;47.238;-2.304;2023-02-28T07:02:35;14.60;;;9.53;;
10557;SDS011;5327;47.238;-2.304;2023-02-28T07:05:02;15.35;;;9.82;;
10557;SDS011;5327;47.238;-2.304;2023-02-28T07:07:28;13.10;;;9.40;;
10557;SDS011;5327;47.238;-2.304;2023-02-28T07:09:54;18.67;;;10.50;;
10557;SDS011;5327;47.238;-2.304;2023-02-28T07:12:21;13.93;;;9.97;;
10557;SDS011;5327;47.238;-2.304;2023-02-28T07:14:47;11.23;;;8.80;;
10557;SDS011;5327;47.238;-2.304;2023-02-28T07:17:13;13.53;;;10.00;;
10557;SDS011;5327;47.238;-2.304;2023-02-28T07:19:39;14.60;;;10.10;;
10557;SDS011;5327;47.238;-2.304;2023-02-28T07:22:06;12.20;;;8.83;;
10557;SDS011;5327;47.238;-2.304;2023-02-28T07:24:32;13.07;;;8.60;;
10557;SDS011;5327;47.238;-2.304;2023-02-28T07:26:58;14.47;;;9.60;;
10557;SDS011;5327;47.238;-2.304;2023-02-28T07:29:24;11.97;;;9.10;;
10557;SDS011;5327;47.238;-2.304;2023-02-28T07:31:50;12.00;;;8.40;;
10557;SDS011;5327;47.238;-2.304;2023-02-28T07:34:18;17.57;;;10.67;;
10557;SDS011;5327;47.238;-2.304;2023-02-28T07:36:44;15.50;;;9.90;;
10557;SDS011;5327;47.238;-2.304;2023-02-28T07:39:10;9.67;;;7.57;;
10557;SDS011;5327;47.238;-2.304;2023-02-28T07:41:36;16.67;;;10.23;;
10557;SDS011;5327;47.238;-2.304;2023-02-28T07:44:08;16.33;;;10.20;;
10557;SDS011;5327;47.238;-2.304;2023-02-28T07:46:34;13.80;;;10.33;;
10557;SDS011;5327;47.238;-2.304;2023-02-28T07:49:01;10.30;;;8.37;;
10557;SDS011;5327;47.238;-2.304;2023-02-28T07:51:28;14.00;;;9.10;;
10557;SDS011;5327;47.238;-2.304;2023-02-28T07:53:54;14.97;;;9.27;;
10557;SDS011;5327;47.238;-2.304;2023-02-28T07:56:20;17.77;;;10.43;;
10557;SDS011;5327;47.238;-2.304;2023-02-28T07:58:46;8.03;;;6.00;;
10557;SDS011;5327;47.238;-2.304;2023-02-28T08:01:12;17.30;;;11.03;;
10557;SDS011;5327;47.238;-2.304;2023-02-28T08:03:39;14.10;;;8.93;;
10557;SDS011;5327;47.238;-2.304;2023-02-28T08:06:07;14.87;;;10.70;;
10557;SDS011;5327;47.238;-2.304;2023-02-28T08:08:33;11.03;;;8.47;;
10557;SDS011;5327;47.238;-2.304;2023-02-28T08:11:00;9.53;;;7.67;;
10557;SDS011;5327;47.238;-2.304;2023-02-28T08:13:27;12.67;;;9.67;;
10557;SDS011;5327;47.238;-2.304;2023-02-28T08:15:54;9.67;;;8.23;;
10557;SDS011;5327;47.238;-2.304;2023-02-28T08:18:20;9.10;;;7.80;;
10557;SDS011;5327;47.238;-2.304;2023-02-28T08:20:46;15.47;;;10.80;;
10557;SDS011;5327;47.238;-2.304;2023-02-28T08:23:13;13.23;;;10.83;;
10557;SDS011;5327;47.238;-2.304;2023-02-28T08:25:39;14.90;;;10.33;;
10557;SDS011;5327;47.238;-2.304;2023-02-28T08:28:05;11.43;;;8.80;;
10557;SDS011;5327;47.238;-2.304;2023-02-28T08:30:31;17.67;;;11.90;;
10557;SDS011;5327;47.238;-2.304;2023-02-28T08:32:57;18.53;;;12.27;;
10557;SDS011;5327;47.238;-2.304;2023-02-28T08:35:23;16.40;;;12.50;;
10557;SDS011;5327;47.238;-2.304;2023-02-28T08:37:49;13.23;;;10.93;;
10557;SDS011;5327;47.238;-2.304;2023-02-28T08:40:16;21.10;;;11.80;;
10557;SDS011;5327;47.238;-2.304;2023-02-28T08:42:43;14.00;;;10.37;;
10557;SDS011;5327;47.238;-2.304;2023-02-28T08:45:10;19.17;;;13.40;;
10557;SDS011;5327;47.238;-2.304;2023-02-28T08:47:36;13.90;;;9.70;;
10557;SDS011;5327;47.238;-2.304;2023-02-28T08:50:03;16.80;;;12.30;;
10557;SDS011;5327;47.238;-2.304;2023-02-28T08:52:29;22.53;;;14.27;;
10557;SDS011;5327;47.238;-2.304;2023-02-28T08:54:55;19.50;;;13.40;;
10557;SDS011;5327;47.238;-2.304;2023-02-28T08:57:21;17.70;;;13.00;;
10557;SDS011;5327;47.238;-2.304;2023-02-28T08:59:47;22.20;;;13.30;;
10557;SDS011;5327;47.238;-2.304;2023-02-28T09:02:14;13.23;;;8.43;;
10557;SDS011;5327;47.238;-2.304;2023-02-28T09:04:40;19.40;;;12.00;;
10557;SDS011;5327;47.238;-2.304;2023-02-28T09:07:07;15.80;;;12.70;;
10557;SDS011;5327;47.238;-2.304;2023-02-28T09:09:33;15.77;;;11.03;;
10557;SDS011;5327;47.238;-2.304;2023-02-28T09:11:59;15.43;;;10.73;;
10557;SDS011;5327;47.238;-2.304;2023-02-28T09:14:25;18.00;;;11.07;;
10557;SDS011;5327;47.238;-2.304;2023-02-28T09:16:51;19.40;;;13.43;;
10557;SDS011;5327;47.238;-2.304;2023-02-28T09:19:17;14.23;;;9.60;;
10557;SDS011;5327;47.238;-2.304;2023-02-28T09:21:43;12.83;;;11.10;;
10557;SDS011;5327;47.238;-2.304;2023-02-28T09:24:09;16.67;;;12.20;;
10557;SDS011;5327;47.238;-2.304;2023-02-28T09:26:38;15.83;;;10.57;;
10557;SDS011;5327;47.238;-2.304;2023-02-28T09:29:05;13.40;;;8.97;;
10557;SDS011;5327;47.238;-2.304;2023-02-28T09:31:31;13.43;;;10.33;;
10557;SDS011;5327;47.238;-2.304;2023-02-28T09:33:58;11.60;;;10.10;;
10557;SDS011;5327;47.238;-2.304;2023-02-28T09:36:25;12.37;;;8.83;;
10557;SDS011;5327;47.238;-2.304;2023-02-28T09:38:51;11.97;;;10.17;;
10557;SDS011;5327;47.238;-2.304;2023-02-28T09:41:27;10.97;;;7.90;;
10557;SDS011;5327;47.238;-2.304;2023-02-28T09:44:00;10.90;;;9.83;;
10557;SDS011;5327;47.238;-2.304;2023-02-28T09:46:29;11.77;;;10.23;;
10557;SDS011;5327;47.238;-2.304;2023-02-28T09:48:56;12.73;;;10.57;;
10557;SDS011;5327;47.238;-2.304;2023-02-28T09:54:41;9.80;;;8.80;;
10557;SDS011;5327;47.238;-2.304;2023-02-28T09:59:38;10.30;;;9.40;;
10557;SDS011;5327;47.238;-2.304;2023-02-28T10:10:02;8.57;;;7.77;;
10557;SDS011;5327;47.238;-2.304;2023-02-28T10:12:30;7.70;;;6.90;;
10557;SDS011;5327;47.238;-2.304;2023-02-28T10:14:57;6.60;;;6.00;;
10557;SDS011;5327;47.238;-2.304;2023-02-28T10:17:26;9.00;;;7.27;;
10557;SDS011;5327;47.238;-2.304;2023-02-28T10:22:20;8.67;;;7.70;;
10557;SDS011;5327;47.238;-2.304;2023-02-28T10:24:49;12.07;;;10.70;;
10557;SDS011;5327;47.238;-2.304;2023-02-28T10:29:43;9.40;;;7.03;;
10557;SDS011;5327;47.238;-2.304;2023-02-28T10:32:10;9.27;;;7.23;;
10557;SDS011;5327;47.238;-2.304;2023-02-28T10:34:38;6.33;;;5.73;;
10557;SDS011;5327;47.238;-2.304;2023-02-28T10:37:04;6.90;;;6.23;;
10557;SDS011;5327;47.238;-2.304;2023-02-28T10:42:02;5.70;;;4.80;;
10557;SDS011;5327;47.238;-2.304;2023-02-28T10:44:28;18.47;;;7.00;;
10557;SDS011;5327;47.238;-2.304;2023-02-28T10:46:54;6.60;;;6.00;;
10557;SDS011;5327;47.238;-2.304;2023-02-28T10:49:25;7.73;;;5.17;;
10557;SDS011;5327;47.238;-2.304;2023-02-28T10:52:00;7.40;;;6.33;;
10557;SDS011;5327;47.238;-2.304;2023-02-28T10:54:31;8.00;;;7.00;;
10557;SDS011;5327;47.238;-2.304;2023-02-28T10:59:41;7.57;;;6.97;;
10557;SDS011;5327;47.238;-2.304;2023-02-28T11:04:52;7.50;;;6.63;;
10557;SDS011;5327;47.238;-2.304;2023-02-28T11:07:19;7.03;;;5.70;;
10557;SDS011;5327;47.238;-2.304;2023-02-28T11:09:46;6.90;;;6.20;;
10557;SDS011;5327;47.238;-2.304;2023-02-28T11:12:59;5.60;;;4.80;;
10557;SDS011;5327;47.238;-2.304;2023-02-28T11:15:04;5.17;;;4.00;;
10557;SDS011;5327;47.238;-2.304;2023-02-28T11:17:31;4.83;;;4.03;;
10557;SDS011;5327;47.238;-2.304;2023-02-28T11:19:58;11.63;;;6.93;;
10557;SDS011;5327;47.238;-2.304;2023-02-28T11:22:28;4.50;;;4.10;;
10557;SDS011;5327;47.238;-2.304;2023-02-28T11:24:56;7.03;;;5.00;;
10557;SDS011;5327;47.238;-2.304;2023-02-28T11:29:55;3.40;;;3.10;;
10557;SDS011;5327;47.238;-2.304;2023-02-28T11:32:22;5.10;;;4.60;;
10557;SDS011;5327;47.238;-2.304;2023-02-28T11:37:34;4.30;;;3.90;;
10557;SDS011;5327;47.238;-2.304;2023-02-28T11:40:00;4.60;;;3.87;;
10557;SDS011;5327;47.238;-2.304;2023-02-28T11:45:11;4.63;;;3.57;;
10557;SDS011;5327;47.238;-2.304;2023-02-28T11:52:54;7.23;;;4.60;;
10557;SDS011;5327;47.238;-2.304;2023-02-28T12:00:29;8.60;;;4.33;;
10557;SDS011;5327;47.238;-2.304;2023-02-28T12:05:45;3.50;;;3.07;;
10557;SDS011;5327;47.238;-2.304;2023-02-28T12:08:22;3.50;;;3.20;;
10557;SDS011;5327;47.238;-2.304;2023-02-28T12:13:46;3.73;;;2.73;;
10557;SDS011;5327;47.238;-2.304;2023-02-28T12:21:35;4.70;;;3.67;;
10557;SDS011;5327;47.238;-2.304;2023-02-28T12:24:12;5.20;;;3.87;;
10557;SDS011;5327;47.238;-2.304;2023-02-28T12:26:42;9.77;;;3.90;;
10557;SDS011;5327;47.238;-2.304;2023-02-28T12:31:39;9.90;;;5.70;;
10557;SDS011;5327;47.238;-2.304;2023-02-28T12:34:09;5.30;;;4.00;;
10557;SDS011;5327;47.238;-2.304;2023-02-28T12:36:37;4.93;;;4.43;;
10557;SDS011;5327;47.238;-2.304;2023-02-28T12:39:08;8.27;;;6.00;;
10557;SDS011;5327;47.238;-2.304;2023-02-28T12:44:07;6.33;;;4.33;;
10557;SDS011;5327;47.238;-2.304;2023-02-28T12:46:59;5.70;;;3.60;;
10557;SDS011;5327;47.238;-2.304;2023-02-28T12:51:56;6.43;;;3.50;;
10557;SDS011;5327;47.238;-2.304;2023-02-28T12:59:40;4.30;;;3.90;;
10557;SDS011;5327;47.238;-2.304;2023-02-28T13:05:08;4.20;;;3.80;;
10557;SDS011;5327;47.238;-2.304;2023-02-28T13:10:17;4.00;;;3.50;;
10557;SDS011;5327;47.238;-2.304;2023-02-28T13:12:50;3.13;;;2.80;;
10557;SDS011;5327;47.238;-2.304;2023-02-28T13:17:53;4.80;;;3.77;;
10557;SDS011;5327;47.238;-2.304;2023-02-28T13:20:23;4.73;;;4.23;;
10557;SDS011;5327;47.238;-2.304;2023-02-28T13:22:50;4.57;;;4.13;;
10557;SDS011;5327;47.238;-2.304;2023-02-28T13:27:50;4.70;;;4.17;;
10557;SDS011;5327;47.238;-2.304;2023-02-28T13:35:48;6.20;;;4.30;;
10557;SDS011;5327;47.238;-2.304;2023-02-28T13:38:22;4.37;;;3.67;;
10557;SDS011;5327;47.238;-2.304;2023-02-28T13:40:48;5.13;;;4.60;;
10557;SDS011;5327;47.238;-2.304;2023-02-28T13:43:16;4.00;;;3.70;;
10557;SDS011;5327;47.238;-2.304;2023-02-28T13:48:28;5.63;;;3.50;;
10557;SDS011;5327;47.238;-2.304;2023-02-28T13:50:55;5.50;;;4.27;;
10557;SDS011;5327;47.238;-2.304;2023-02-28T14:01:20;3.33;;;3.03;;
10557;SDS011;5327;47.238;-2.304;2023-02-28T14:06:27;5.07;;;3.70;;
10557;SDS011;5327;47.238;-2.304;2023-02-28T14:08:56;3.53;;;3.13;;
10557;SDS011;5327;47.238;-2.304;2023-02-28T14:11:27;6.83;;;3.77;;
10557;SDS011;5327;47.238;-2.304;2023-02-28T14:13:53;4.57;;;3.60;;
10557;SDS011;5327;47.238;-2.304;2023-02-28T14:16:20;4.60;;;3.43;;
10557;SDS011;5327;47.238;-2.304;2023-02-28T14:18:58;6.20;;;3.80;;
10557;SDS011;5327;47.238;-2.304;2023-02-28T14:21:29;5.00;;;3.93;;
10557;SDS011;5327;47.238;-2.304;2023-02-28T14:31:34;5.17;;;4.50;;
10557;SDS011;5327;47.238;-2.304;2023-02-28T14:37:01;6.47;;;4.10;;
10557;SDS011;5327;47.238;-2.304;2023-02-28T14:39:28;5.97;;;4.43;;
10557;SDS011;5327;47.238;-2.304;2023-02-28T14:41:56;6.30;;;4.07;;
10557;SDS011;5327;47.238;-2.304;2023-02-28T14:44:28;6.97;;;3.47;;
10557;SDS011;5327;47.238;-2.304;2023-02-28T14:46:55;6.30;;;3.63;;
10557;SDS011;5327;47.238;-2.304;2023-02-28T14:49:28;5.40;;;4.33;;
10557;SDS011;5327;47.238;-2.304;2023-02-28T14:54:40;4.93;;;3.83;;
10557;SDS011;5327;47.238;-2.304;2023-02-28T14:57:06;6.17;;;4.30;;
10557;SDS011;5327;47.238;-2.304;2023-02-28T14:59:33;5.53;;;5.00;;
10557;SDS011;5327;47.238;-2.304;2023-02-28T15:02:16;10.30;;;6.03;;
10557;SDS011;5327;47.238;-2.304;2023-02-28T15:04:42;7.23;;;6.10;;
10557;SDS011;5327;47.238;-2.304;2023-02-28T15:07:13;6.97;;;5.60;;
10557;SDS011;5327;47.238;-2.304;2023-02-28T15:09:39;6.37;;;4.63;;
10557;SDS011;5327;47.238;-2.304;2023-02-28T15:12:05;6.80;;;5.90;;
10557;SDS011;5327;47.238;-2.304;2023-02-28T15:14:31;7.73;;;5.67;;
10557;SDS011;5327;47.238;-2.304;2023-02-28T15:17:00;9.60;;;5.80;;
10557;SDS011;5327;47.238;-2.304;2023-02-28T15:19:30;5.67;;;4.77;;
10557;SDS011;5327;47.238;-2.304;2023-02-28T15:22:07;7.20;;;5.10;;
10557;SDS011;5327;47.238;-2.304;2023-02-28T15:24:37;4.90;;;3.97;;
10557;SDS011;5327;47.238;-2.304;2023-02-28T15:27:24;5.87;;;5.33;;
10557;SDS011;5327;47.238;-2.304;2023-02-28T15:29:53;6.53;;;4.80;;
10557;SDS011;5327;47.238;-2.304;2023-02-28T15:32:25;5.57;;;4.53;;
10557;SDS011;5327;47.238;-2.304;2023-02-28T15:34:51;5.67;;;4.30;;
10557;SDS011;5327;47.238;-2.304;2023-02-28T15:37:40;4.77;;;4.30;;
10557;SDS011;5327;47.238;-2.304;2023-02-28T15:42:38;5.47;;;3.63;;
10557;SDS011;5327;47.238;-2.304;2023-02-28T15:45:04;5.70;;;5.20;;
10557;SDS011;5327;47.238;-2.304;2023-02-28T15:47:30;6.90;;;3.60;;
10557;SDS011;5327;47.238;-2.304;2023-02-28T15:49:58;11.40;;;7.53;;
10557;SDS011;5327;47.238;-2.304;2023-02-28T15:52:28;7.20;;;5.00;;
10557;SDS011;5327;47.238;-2.304;2023-02-28T15:54:56;3.50;;;3.20;;
10557;SDS011;5327;47.238;-2.304;2023-02-28T15:57:26;4.17;;;3.77;;
10557;SDS011;5327;47.238;-2.304;2023-02-28T15:59:54;4.70;;;3.93;;
10557;SDS011;5327;47.238;-2.304;2023-02-28T16:02:31;4.30;;;3.90;;
10557;SDS011;5327;47.238;-2.304;2023-02-28T16:05:13;3.10;;;2.80;;
10557;SDS011;5327;47.238;-2.304;2023-02-28T16:07:43;6.67;;;4.87;;
10557;SDS011;5327;47.238;-2.304;2023-02-28T16:10:11;8.00;;;6.00;;
10557;SDS011;5327;47.238;-2.304;2023-02-28T16:12:39;6.63;;;5.93;;
10557;SDS011;5327;47.238;-2.304;2023-02-28T16:15:06;4.80;;;4.40;;
10557;SDS011;5327;47.238;-2.304;2023-02-28T16:17:34;7.60;;;4.87;;
10557;SDS011;5327;47.238;-2.304;2023-02-28T16:20:00;6.90;;;6.30;;
10557;SDS011;5327;47.238;-2.304;2023-02-28T16:22:29;6.07;;;5.47;;
10557;SDS011;5327;47.238;-2.304;2023-02-28T16:24:55;8.07;;;5.50;;
10557;SDS011;5327;47.238;-2.304;2023-02-28T16:27:22;6.90;;;5.80;;
10557;SDS011;5327;47.238;-2.304;2023-02-28T16:29:52;8.60;;;5.50;;
10557;SDS011;5327;47.238;-2.304;2023-02-28T16:32:19;4.77;;;4.00;;
10557;SDS011;5327;47.238;-2.304;2023-02-28T16:34:45;2.80;;;2.53;;
10557;SDS011;5327;47.238;-2.304;2023-02-28T16:37:11;5.53;;;5.03;;
10557;SDS011;5327;47.238;-2.304;2023-02-28T16:39:37;3.37;;;3.07;;
10557;SDS011;5327;47.238;-2.304;2023-02-28T16:42:04;6.20;;;5.60;;
10557;SDS011;5327;47.238;-2.304;2023-02-28T16:44:31;6.70;;;4.20;;
10557;SDS011;5327;47.238;-2.304;2023-02-28T16:46:59;4.67;;;3.63;;
10557;SDS011;5327;47.238;-2.304;2023-02-28T16:49:25;9.40;;;5.40;;
10557;SDS011;5327;47.238;-2.304;2023-02-28T16:51:51;8.00;;;5.67;;
10557;SDS011;5327;47.238;-2.304;2023-02-28T16:54:17;6.13;;;5.30;;
10557;SDS011;5327;47.238;-2.304;2023-02-28T16:56:44;5.03;;;4.50;;
10557;SDS011;5327;47.238;-2.304;2023-02-28T16:59:11;8.33;;;6.07;;
10557;SDS011;5327;47.238;-2.304;2023-02-28T17:01:37;14.33;;;6.53;;
10557;SDS011;5327;47.238;-2.304;2023-02-28T17:04:03;9.43;;;6.77;;
10557;SDS011;5327;47.238;-2.304;2023-02-28T17:06:29;9.87;;;7.00;;
10557;SDS011;5327;47.238;-2.304;2023-02-28T17:08:56;7.37;;;6.67;;
10557;SDS011;5327;47.238;-2.304;2023-02-28T17:11:23;9.53;;;5.97;;